sensor_id;sensor_type;location;lat;lon;timestamp;P1;durP1;ratioP1;P2;durP2;ratioP2
46116;SDS011;32591;48.102;11.772;2023-08-24T00:00:16;7.60;;;6.80;;
46116;SDS011;32591;48.102;11.772;2023-08-24T00:02:43;7.70;;;6.57;;
46116;SDS011;32591;48.102;11.772;2023-08-24T00:05:15;8.48;;;6.53;;
46116;SDS011;32591;48.102;11.772;2023-08-24T00:07:42;8.25;;;7.45;;
46116;SDS011;32591;48.102;11.772;2023-08-24T00:10:10;8.63;;;6.95;;
46116;SDS011;32591;48.102;11.772;2023-08-24T00:12:37;8.35;;;7.10;;
46116;SDS011;32591;48.102;11.772;2023-08-24T00:15:07;8.18;;;6.75;;
46116;SDS011;32591;48.102;11.772;2023-08-24T00:17:35;8.18;;;7.25;;
46116;SDS011;32591;48.102;11.772;2023-08-24T00:20:04;9.30;;;7.30;;
46116;SDS011;32591;48.102;11.772;2023-08-24T00:22:36;9.07;;;7.20;;
46116;SDS011;32591;48.102;11.772;2023-08-24T00:25:04;8.48;;;6.38;;
46116;SDS011;32591;48.102;11.772;2023-08-24T00:27:34;9.02;;;6.28;;
46116;SDS011;32591;48.102;11.772;2023-08-24T00:30:02;7.20;;;6.50;;
46116;SDS011;32591;48.102;11.772;2023-08-24T00:32:31;9.15;;;7.47;;
46116;SDS011;32591;48.102;11.772;2023-08-24T00:34:59;9.73;;;6.80;;
46116;SDS011;32591;48.102;11.772;2023-08-24T00:37:26;9.05;;;6.47;;
46116;SDS011;32591;48.102;11.772;2023-08-24T00:39:54;7.97;;;6.43;;
46116;SDS011;32591;48.102;11.772;2023-08-24T00:42:21;8.77;;;6.78;;
46116;SDS011;32591;48.102;11.772;2023-08-24T00:44:49;11.60;;;7.35;;
46116;SDS011;32591;48.102;11.772;2023-08-24T00:47:16;7.15;;;6.43;;
46116;SDS011;32591;48.102;11.772;2023-08-24T00:49:44;8.88;;;6.97;;
46116;SDS011;32591;48.102;11.772;2023-08-24T00:52:11;9.52;;;7.75;;
46116;SDS011;32591;48.102;11.772;2023-08-24T00:54:39;8.75;;;7.05;;
46116;SDS011;32591;48.102;11.772;2023-08-24T01:00:38;8.73;;;7.82;;
46116;SDS011;32591;48.102;11.772;2023-08-24T01:03:06;8.00;;;6.90;;
46116;SDS011;32591;48.102;11.772;2023-08-24T01:05:33;8.63;;;7.28;;
46116;SDS011;32591;48.102;11.772;2023-08-24T01:08:00;8.57;;;7.13;;
46116;SDS011;32591;48.102;11.772;2023-08-24T01:10:27;7.90;;;6.70;;
46116;SDS011;32591;48.102;11.772;2023-08-24T01:13:06;8.55;;;6.80;;
46116;SDS011;32591;48.102;11.772;2023-08-24T01:15:38;8.75;;;6.75;;
46116;SDS011;32591;48.102;11.772;2023-08-24T01:18:14;11.68;;;7.65;;
46116;SDS011;32591;48.102;11.772;2023-08-24T01:20:45;10.43;;;7.53;;
46116;SDS011;32591;48.102;11.772;2023-08-24T01:23:18;9.15;;;6.80;;
46116;SDS011;32591;48.102;11.772;2023-08-24T01:26:08;9.85;;;7.28;;
46116;SDS011;32591;48.102;11.772;2023-08-24T01:28:39;9.80;;;7.68;;
46116;SDS011;32591;48.102;11.772;2023-08-24T01:31:07;9.90;;;6.90;;
46116;SDS011;32591;48.102;11.772;2023-08-24T01:33:35;7.20;;;6.50;;
46116;SDS011;32591;48.102;11.772;2023-08-24T01:36:02;10.07;;;7.25;;
46116;SDS011;32591;48.102;11.772;2023-08-24T01:38:29;9.80;;;7.25;;
46116;SDS011;32591;48.102;11.772;2023-08-24T01:40:59;9.50;;;7.45;;
46116;SDS011;32591;48.102;11.772;2023-08-24T01:43:39;7.93;;;6.40;;
46116;SDS011;32591;48.102;11.772;2023-08-24T01:46:08;8.15;;;6.72;;
46116;SDS011;32591;48.102;11.772;2023-08-24T01:48:37;10.88;;;6.78;;
46116;SDS011;32591;48.102;11.772;2023-08-24T01:51:05;8.00;;;6.50;;
46116;SDS011;32591;48.102;11.772;2023-08-24T01:53:35;8.63;;;6.80;;
46116;SDS011;32591;48.102;11.772;2023-08-24T01:56:07;9.70;;;7.35;;
46116;SDS011;32591;48.102;11.772;2023-08-24T01:58:36;8.68;;;7.28;;
46116;SDS011;32591;48.102;11.772;2023-08-24T02:01:03;9.05;;;7.65;;
46116;SDS011;32591;48.102;11.772;2023-08-24T02:03:31;9.57;;;7.28;;
46116;SDS011;32591;48.102;11.772;2023-08-24T02:05:58;10.90;;;7.45;;
46116;SDS011;32591;48.102;11.772;2023-08-24T02:08:25;9.07;;;7.28;;
46116;SDS011;32591;48.102;11.772;2023-08-24T02:10:52;7.80;;;7.00;;
46116;SDS011;32591;48.102;11.772;2023-08-24T02:13:20;8.88;;;6.95;;
46116;SDS011;32591;48.102;11.772;2023-08-24T02:15:47;8.50;;;7.68;;
46116;SDS011;32591;48.102;11.772;2023-08-24T02:18:14;8.75;;;6.85;;
46116;SDS011;32591;48.102;11.772;2023-08-24T02:20:41;9.82;;;7.28;;
46116;SDS011;32591;48.102;11.772;2023-08-24T02:23:08;8.38;;;7.45;;
46116;SDS011;32591;48.102;11.772;2023-08-24T02:25:41;8.10;;;6.78;;
46116;SDS011;32591;48.102;11.772;2023-08-24T02:28:08;8.65;;;7.30;;
46116;SDS011;32591;48.102;11.772;2023-08-24T02:30:38;8.98;;;6.82;;
46116;SDS011;32591;48.102;11.772;2023-08-24T02:33:05;9.40;;;7.75;;
46116;SDS011;32591;48.102;11.772;2023-08-24T02:35:32;8.63;;;7.72;;
46116;SDS011;32591;48.102;11.772;2023-08-24T02:37:59;7.57;;;6.78;;
46116;SDS011;32591;48.102;11.772;2023-08-24T02:40:26;8.20;;;7.40;;
46116;SDS011;32591;48.102;11.772;2023-08-24T02:42:53;8.30;;;7.10;;
46116;SDS011;32591;48.102;11.772;2023-08-24T02:45:20;8.88;;;7.10;;
46116;SDS011;32591;48.102;11.772;2023-08-24T02:47:49;9.15;;;7.97;;
46116;SDS011;32591;48.102;11.772;2023-08-24T02:50:16;8.70;;;7.80;;
46116;SDS011;32591;48.102;11.772;2023-08-24T02:52:43;10.18;;;7.38;;
46116;SDS011;32591;48.102;11.772;2023-08-24T02:55:10;9.05;;;7.57;;
46116;SDS011;32591;48.102;11.772;2023-08-24T02:57:38;10.48;;;6.85;;
46116;SDS011;32591;48.102;11.772;2023-08-24T03:00:05;8.90;;;7.07;;
46116;SDS011;32591;48.102;11.772;2023-08-24T03:02:34;8.15;;;6.50;;
46116;SDS011;32591;48.102;11.772;2023-08-24T03:05:03;8.48;;;7.05;;
46116;SDS011;32591;48.102;11.772;2023-08-24T03:07:31;9.60;;;6.60;;
46116;SDS011;32591;48.102;11.772;2023-08-24T03:09:58;8.63;;;6.50;;
46116;SDS011;32591;48.102;11.772;2023-08-24T03:12:25;8.38;;;7.20;;
46116;SDS011;32591;48.102;11.772;2023-08-24T03:14:52;8.95;;;7.28;;
46116;SDS011;32591;48.102;11.772;2023-08-24T03:17:20;9.95;;;7.20;;
46116;SDS011;32591;48.102;11.772;2023-08-24T03:19:47;7.22;;;6.53;;
46116;SDS011;32591;48.102;11.772;2023-08-24T03:22:16;10.23;;;7.30;;
46116;SDS011;32591;48.102;11.772;2023-08-24T03:24:42;8.40;;;7.07;;
46116;SDS011;32591;48.102;11.772;2023-08-24T03:27:09;10.40;;;7.10;;
46116;SDS011;32591;48.102;11.772;2023-08-24T03:29:36;10.52;;;7.80;;
46116;SDS011;32591;48.102;11.772;2023-08-24T03:32:03;8.70;;;7.80;;
46116;SDS011;32591;48.102;11.772;2023-08-24T03:34:30;9.98;;;7.07;;
46116;SDS011;32591;48.102;11.772;2023-08-24T03:36:57;9.40;;;7.63;;
46116;SDS011;32591;48.102;11.772;2023-08-24T03:39:25;10.98;;;7.28;;
46116;SDS011;32591;48.102;11.772;2023-08-24T03:41:52;8.98;;;7.78;;
46116;SDS011;32591;48.102;11.772;2023-08-24T03:44:19;9.50;;;6.88;;
46116;SDS011;32591;48.102;11.772;2023-08-24T03:46:46;7.72;;;6.88;;
46116;SDS011;32591;48.102;11.772;2023-08-24T03:49:13;10.05;;;6.80;;
46116;SDS011;32591;48.102;11.772;2023-08-24T03:51:40;8.48;;;6.88;;
46116;SDS011;32591;48.102;11.772;2023-08-24T03:54:07;9.05;;;7.00;;
46116;SDS011;32591;48.102;11.772;2023-08-24T03:56:35;9.57;;;7.18;;
46116;SDS011;32591;48.102;11.772;2023-08-24T03:59:02;9.57;;;7.10;;
46116;SDS011;32591;48.102;11.772;2023-08-24T04:01:29;8.02;;;6.80;;
46116;SDS011;32591;48.102;11.772;2023-08-24T04:03:56;8.57;;;7.55;;
46116;SDS011;32591;48.102;11.772;2023-08-24T04:06:23;7.57;;;6.88;;
46116;SDS011;32591;48.102;11.772;2023-08-24T04:08:50;9.00;;;7.30;;
46116;SDS011;32591;48.102;11.772;2023-08-24T04:11:17;9.35;;;7.47;;
46116;SDS011;32591;48.102;11.772;2023-08-24T04:13:45;8.77;;;6.97;;
46116;SDS011;32591;48.102;11.772;2023-08-24T04:16:12;8.10;;;7.07;;
46116;SDS011;32591;48.102;11.772;2023-08-24T04:18:39;8.57;;;7.75;;
46116;SDS011;32591;48.102;11.772;2023-08-24T04:21:06;9.60;;;7.40;;
46116;SDS011;32591;48.102;11.772;2023-08-24T04:23:33;8.55;;;6.97;;
46116;SDS011;32591;48.102;11.772;2023-08-24T04:26:00;8.38;;;7.47;;
46116;SDS011;32591;48.102;11.772;2023-08-24T04:28:30;10.20;;;7.25;;
46116;SDS011;32591;48.102;11.772;2023-08-24T04:30:58;8.43;;;7.32;;
46116;SDS011;32591;48.102;11.772;2023-08-24T04:33:25;9.68;;;6.95;;
46116;SDS011;32591;48.102;11.772;2023-08-24T04:35:52;7.82;;;6.85;;
46116;SDS011;32591;48.102;11.772;2023-08-24T04:38:19;7.47;;;6.78;;
46116;SDS011;32591;48.102;11.772;2023-08-24T04:40:48;8.65;;;7.28;;
46116;SDS011;32591;48.102;11.772;2023-08-24T04:43:17;10.43;;;7.72;;
46116;SDS011;32591;48.102;11.772;2023-08-24T04:45:45;9.43;;;7.43;;
46116;SDS011;32591;48.102;11.772;2023-08-24T04:48:14;11.07;;;7.68;;
46116;SDS011;32591;48.102;11.772;2023-08-24T04:50:42;7.65;;;6.85;;
46116;SDS011;32591;48.102;11.772;2023-08-24T04:53:10;9.77;;;7.68;;
46116;SDS011;32591;48.102;11.772;2023-08-24T04:55:38;9.15;;;8.25;;
46116;SDS011;32591;48.102;11.772;2023-08-24T04:58:06;8.93;;;7.68;;
46116;SDS011;32591;48.102;11.772;2023-08-24T05:00:34;9.15;;;7.82;;
46116;SDS011;32591;48.102;11.772;2023-08-24T05:03:01;9.43;;;7.80;;
46116;SDS011;32591;48.102;11.772;2023-08-24T05:05:31;8.18;;;7.30;;
46116;SDS011;32591;48.102;11.772;2023-08-24T05:07:59;11.20;;;8.25;;
46116;SDS011;32591;48.102;11.772;2023-08-24T05:10:29;9.75;;;8.10;;
46116;SDS011;32591;48.102;11.772;2023-08-24T05:12:58;9.07;;;8.02;;
46116;SDS011;32591;48.102;11.772;2023-08-24T05:15:26;9.65;;;8.02;;
46116;SDS011;32591;48.102;11.772;2023-08-24T05:17:53;10.85;;;8.68;;
46116;SDS011;32591;48.102;11.772;2023-08-24T05:20:21;9.18;;;8.02;;
46116;SDS011;32591;48.102;11.772;2023-08-24T05:22:50;8.82;;;7.35;;
46116;SDS011;32591;48.102;11.772;2023-08-24T05:25:20;9.07;;;7.95;;
46116;SDS011;32591;48.102;11.772;2023-08-24T05:27:47;9.93;;;8.50;;
46116;SDS011;32591;48.102;11.772;2023-08-24T05:30:14;8.65;;;7.75;;
46116;SDS011;32591;48.102;11.772;2023-08-24T05:32:41;9.27;;;7.95;;
46116;SDS011;32591;48.102;11.772;2023-08-24T05:35:09;8.70;;;7.90;;
46116;SDS011;32591;48.102;11.772;2023-08-24T05:37:36;8.68;;;7.25;;
46116;SDS011;32591;48.102;11.772;2023-08-24T05:40:06;9.80;;;7.90;;
46116;SDS011;32591;48.102;11.772;2023-08-24T05:42:34;10.70;;;8.57;;
46116;SDS011;32591;48.102;11.772;2023-08-24T05:45:01;9.32;;;8.02;;
46116;SDS011;32591;48.102;11.772;2023-08-24T05:47:29;11.38;;;8.80;;
46116;SDS011;32591;48.102;11.772;2023-08-24T05:49:56;10.13;;;8.95;;
46116;SDS011;32591;48.102;11.772;2023-08-24T05:52:23;9.02;;;7.85;;
46116;SDS011;32591;48.102;11.772;2023-08-24T05:54:50;9.50;;;7.60;;
46116;SDS011;32591;48.102;11.772;2023-08-24T05:57:18;8.80;;;7.82;;
46116;SDS011;32591;48.102;11.772;2023-08-24T05:59:45;7.90;;;6.68;;
46116;SDS011;32591;48.102;11.772;2023-08-24T06:02:12;9.30;;;7.43;;
46116;SDS011;32591;48.102;11.772;2023-08-24T06:04:39;9.15;;;7.53;;
46116;SDS011;32591;48.102;11.772;2023-08-24T06:07:06;8.32;;;7.50;;
46116;SDS011;32591;48.102;11.772;2023-08-24T06:09:33;9.05;;;7.10;;
46116;SDS011;32591;48.102;11.772;2023-08-24T06:12:00;9.15;;;7.35;;
46116;SDS011;32591;48.102;11.772;2023-08-24T06:14:28;8.65;;;7.32;;
46116;SDS011;32591;48.102;11.772;2023-08-24T06:16:55;8.18;;;7.00;;
46116;SDS011;32591;48.102;11.772;2023-08-24T06:19:22;11.13;;;7.53;;
46116;SDS011;32591;48.102;11.772;2023-08-24T06:21:49;10.05;;;7.95;;
46116;SDS011;32591;48.102;11.772;2023-08-24T06:24:16;9.15;;;7.47;;
46116;SDS011;32591;48.102;11.772;2023-08-24T06:26:43;9.73;;;7.90;;
46116;SDS011;32591;48.102;11.772;2023-08-24T06:29:10;10.93;;;8.57;;
46116;SDS011;32591;48.102;11.772;2023-08-24T06:31:38;10.55;;;7.70;;
46116;SDS011;32591;48.102;11.772;2023-08-24T06:34:05;13.68;;;7.50;;
46116;SDS011;32591;48.102;11.772;2023-08-24T06:36:32;9.10;;;7.95;;
46116;SDS011;32591;48.102;11.772;2023-08-24T06:38:59;9.70;;;7.30;;
46116;SDS011;32591;48.102;11.772;2023-08-24T06:41:32;11.18;;;7.93;;
46116;SDS011;32591;48.102;11.772;2023-08-24T06:44:00;9.50;;;7.57;;
46116;SDS011;32591;48.102;11.772;2023-08-24T06:46:27;11.82;;;7.95;;
46116;SDS011;32591;48.102;11.772;2023-08-24T06:48:56;11.40;;;7.53;;
46116;SDS011;32591;48.102;11.772;2023-08-24T06:51:24;10.93;;;7.47;;
46116;SDS011;32591;48.102;11.772;2023-08-24T06:53:51;8.35;;;7.22;;
46116;SDS011;32591;48.102;11.772;2023-08-24T06:56:19;9.52;;;7.60;;
46116;SDS011;32591;48.102;11.772;2023-08-24T06:58:47;8.52;;;6.75;;
46116;SDS011;32591;48.102;11.772;2023-08-24T07:01:14;11.10;;;7.90;;
46116;SDS011;32591;48.102;11.772;2023-08-24T07:03:42;11.00;;;7.75;;
46116;SDS011;32591;48.102;11.772;2023-08-24T07:06:10;8.60;;;7.55;;
46116;SDS011;32591;48.102;11.772;2023-08-24T07:08:37;9.27;;;7.35;;
46116;SDS011;32591;48.102;11.772;2023-08-24T07:11:04;7.97;;;7.05;;
46116;SDS011;32591;48.102;11.772;2023-08-24T07:13:32;8.90;;;7.45;;
46116;SDS011;32591;48.102;11.772;2023-08-24T07:15:59;10.13;;;7.13;;
46116;SDS011;32591;48.102;11.772;2023-08-24T07:18:28;9.43;;;7.10;;
46116;SDS011;32591;48.102;11.772;2023-08-24T07:20:55;10.52;;;7.93;;
46116;SDS011;32591;48.102;11.772;2023-08-24T07:23:23;8.02;;;6.28;;
46116;SDS011;32591;48.102;11.772;2023-08-24T07:25:51;10.15;;;8.05;;
46116;SDS011;32591;48.102;11.772;2023-08-24T07:28:18;10.27;;;7.63;;
46116;SDS011;32591;48.102;11.772;2023-08-24T07:30:45;8.85;;;7.90;;
46116;SDS011;32591;48.102;11.772;2023-08-24T07:33:12;10.82;;;7.43;;
46116;SDS011;32591;48.102;11.772;2023-08-24T07:35:39;10.50;;;7.43;;
46116;SDS011;32591;48.102;11.772;2023-08-24T07:38:06;7.85;;;6.97;;
46116;SDS011;32591;48.102;11.772;2023-08-24T07:40:34;9.05;;;7.00;;
46116;SDS011;32591;48.102;11.772;2023-08-24T07:43:02;7.95;;;6.93;;
46116;SDS011;32591;48.102;11.772;2023-08-24T07:45:29;10.40;;;7.70;;
46116;SDS011;32591;48.102;11.772;2023-08-24T07:47:56;10.02;;;7.38;;
46116;SDS011;32591;48.102;11.772;2023-08-24T07:50:23;11.80;;;7.75;;
46116;SDS011;32591;48.102;11.772;2023-08-24T07:52:50;10.55;;;7.70;;
46116;SDS011;32591;48.102;11.772;2023-08-24T07:55:17;10.88;;;7.25;;
46116;SDS011;32591;48.102;11.772;2023-08-24T07:57:46;7.65;;;6.65;;
46116;SDS011;32591;48.102;11.772;2023-08-24T08:00:14;8.73;;;6.57;;
46116;SDS011;32591;48.102;11.772;2023-08-24T08:02:41;8.45;;;7.20;;
46116;SDS011;32591;48.102;11.772;2023-08-24T08:05:08;10.95;;;7.60;;
46116;SDS011;32591;48.102;11.772;2023-08-24T08:07:37;8.15;;;7.30;;
46116;SDS011;32591;48.102;11.772;2023-08-24T08:10:05;8.40;;;7.35;;
46116;SDS011;32591;48.102;11.772;2023-08-24T08:12:33;8.65;;;6.50;;
46116;SDS011;32591;48.102;11.772;2023-08-24T08:15:01;8.00;;;6.40;;
46116;SDS011;32591;48.102;11.772;2023-08-24T08:17:29;11.13;;;7.10;;
46116;SDS011;32591;48.102;11.772;2023-08-24T08:19:58;10.18;;;6.75;;
46116;SDS011;32591;48.102;11.772;2023-08-24T08:22:25;8.63;;;6.57;;
46116;SDS011;32591;48.102;11.772;2023-08-24T08:24:52;8.40;;;6.95;;
46116;SDS011;32591;48.102;11.772;2023-08-24T08:27:21;8.68;;;7.20;;
46116;SDS011;32591;48.102;11.772;2023-08-24T08:29:48;6.93;;;5.85;;
46116;SDS011;32591;48.102;11.772;2023-08-24T08:32:17;8.45;;;6.70;;
46116;SDS011;32591;48.102;11.772;2023-08-24T08:34:44;8.63;;;6.65;;
46116;SDS011;32591;48.102;11.772;2023-08-24T08:37:11;8.43;;;6.43;;
46116;SDS011;32591;48.102;11.772;2023-08-24T08:39:38;8.25;;;7.20;;
46116;SDS011;32591;48.102;11.772;2023-08-24T08:42:06;10.95;;;6.97;;
46116;SDS011;32591;48.102;11.772;2023-08-24T08:44:38;7.35;;;5.95;;
46116;SDS011;32591;48.102;11.772;2023-08-24T08:47:07;8.57;;;6.65;;
46116;SDS011;32591;48.102;11.772;2023-08-24T08:49:36;9.55;;;7.15;;
46116;SDS011;32591;48.102;11.772;2023-08-24T08:52:05;10.70;;;7.00;;
46116;SDS011;32591;48.102;11.772;2023-08-24T08:54:32;9.00;;;6.55;;
46116;SDS011;32591;48.102;11.772;2023-08-24T08:56:59;9.40;;;6.93;;
46116;SDS011;32591;48.102;11.772;2023-08-24T08:59:28;7.53;;;6.70;;
46116;SDS011;32591;48.102;11.772;2023-08-24T09:01:56;9.00;;;7.05;;
46116;SDS011;32591;48.102;11.772;2023-08-24T09:04:26;8.00;;;6.68;;
46116;SDS011;32591;48.102;11.772;2023-08-24T09:06:55;10.25;;;6.78;;
46116;SDS011;32591;48.102;11.772;2023-08-24T09:09:22;8.77;;;6.88;;
46116;SDS011;32591;48.102;11.772;2023-08-24T09:11:49;9.35;;;6.30;;
46116;SDS011;32591;48.102;11.772;2023-08-24T09:14:17;9.13;;;6.38;;
46116;SDS011;32591;48.102;11.772;2023-08-24T09:16:44;8.45;;;6.22;;
46116;SDS011;32591;48.102;11.772;2023-08-24T09:19:11;9.23;;;6.65;;
46116;SDS011;32591;48.102;11.772;2023-08-24T09:21:39;7.97;;;6.15;;
46116;SDS011;32591;48.102;11.772;2023-08-24T09:24:08;11.10;;;7.00;;
46116;SDS011;32591;48.102;11.772;2023-08-24T09:26:38;7.43;;;6.20;;
46116;SDS011;32591;48.102;11.772;2023-08-24T09:29:11;7.38;;;6.07;;
46116;SDS011;32591;48.102;11.772;2023-08-24T09:31:39;7.32;;;6.28;;
46116;SDS011;32591;48.102;11.772;2023-08-24T09:34:09;8.38;;;6.97;;
46116;SDS011;32591;48.102;11.772;2023-08-24T09:36:37;8.73;;;6.13;;
46116;SDS011;32591;48.102;11.772;2023-08-24T09:39:05;7.32;;;6.15;;
46116;SDS011;32591;48.102;11.772;2023-08-24T09:41:40;10.27;;;6.60;;
46116;SDS011;32591;48.102;11.772;2023-08-24T09:44:09;9.38;;;5.75;;
46116;SDS011;32591;48.102;11.772;2023-08-24T09:46:37;6.78;;;6.07;;
46116;SDS011;32591;48.102;11.772;2023-08-24T09:49:06;8.05;;;7.10;;
46116;SDS011;32591;48.102;11.772;2023-08-24T09:51:35;8.55;;;6.32;;
46116;SDS011;32591;48.102;11.772;2023-08-24T09:54:04;7.40;;;6.70;;
46116;SDS011;32591;48.102;11.772;2023-08-24T09:56:34;7.53;;;6.68;;
46116;SDS011;32591;48.102;11.772;2023-08-24T09:59:07;8.43;;;7.13;;
46116;SDS011;32591;48.102;11.772;2023-08-24T10:01:42;9.48;;;7.47;;
46116;SDS011;32591;48.102;11.772;2023-08-24T10:04:12;8.10;;;6.45;;
46116;SDS011;32591;48.102;11.772;2023-08-24T10:06:39;7.53;;;6.53;;
46116;SDS011;32591;48.102;11.772;2023-08-24T10:09:11;7.65;;;6.75;;
46116;SDS011;32591;48.102;11.772;2023-08-24T10:11:48;11.40;;;6.63;;
46116;SDS011;32591;48.102;11.772;2023-08-24T10:14:21;8.77;;;6.68;;
46116;SDS011;32591;48.102;11.772;2023-08-24T10:16:54;10.70;;;6.45;;
46116;SDS011;32591;48.102;11.772;2023-08-24T10:19:22;12.68;;;6.47;;
46116;SDS011;32591;48.102;11.772;2023-08-24T10:21:51;9.68;;;6.60;;
46116;SDS011;32591;48.102;11.772;2023-08-24T10:24:22;7.05;;;6.30;;
46116;SDS011;32591;48.102;11.772;2023-08-24T10:26:50;8.73;;;6.80;;
46116;SDS011;32591;48.102;11.772;2023-08-24T10:29:17;7.88;;;7.18;;
46116;SDS011;32591;48.102;11.772;2023-08-24T10:31:48;7.55;;;6.30;;
46116;SDS011;32591;48.102;11.772;2023-08-24T10:34:16;6.40;;;5.78;;
46116;SDS011;32591;48.102;11.772;2023-08-24T10:36:43;9.77;;;5.85;;
46116;SDS011;32591;48.102;11.772;2023-08-24T10:39:14;7.60;;;6.10;;
46116;SDS011;32591;48.102;11.772;2023-08-24T10:41:48;9.55;;;6.50;;
46116;SDS011;32591;48.102;11.772;2023-08-24T10:44:20;8.18;;;6.20;;
46116;SDS011;32591;48.102;11.772;2023-08-24T10:49:58;6.35;;;5.75;;
46116;SDS011;32591;48.102;11.772;2023-08-24T10:52:26;6.93;;;6.05;;
46116;SDS011;32591;48.102;11.772;2023-08-24T10:54:59;7.15;;;6.10;;
46116;SDS011;32591;48.102;11.772;2023-08-24T10:57:34;8.15;;;6.00;;
46116;SDS011;32591;48.102;11.772;2023-08-24T11:00:07;9.93;;;7.25;;
46116;SDS011;32591;48.102;11.772;2023-08-24T11:02:43;6.55;;;5.95;;
46116;SDS011;32591;48.102;11.772;2023-08-24T11:05:15;7.72;;;6.15;;
46116;SDS011;32591;48.102;11.772;2023-08-24T11:07:52;7.30;;;6.60;;
46116;SDS011;32591;48.102;11.772;2023-08-24T11:10:21;7.40;;;5.70;;
46116;SDS011;32591;48.102;11.772;2023-08-24T11:15:43;11.05;;;6.60;;
46116;SDS011;32591;48.102;11.772;2023-08-24T11:18:19;8.27;;;5.85;;
46116;SDS011;32591;48.102;11.772;2023-08-24T11:20:49;8.43;;;6.68;;
46116;SDS011;32591;48.102;11.772;2023-08-24T11:23:17;6.75;;;6.05;;
46116;SDS011;32591;48.102;11.772;2023-08-24T11:25:46;8.00;;;6.35;;
46116;SDS011;32591;48.102;11.772;2023-08-24T11:28:17;9.85;;;6.30;;
46116;SDS011;32591;48.102;11.772;2023-08-24T11:30:47;7.88;;;5.50;;
46116;SDS011;32591;48.102;11.772;2023-08-24T11:33:16;10.23;;;5.97;;
46116;SDS011;32591;48.102;11.772;2023-08-24T11:35:54;9.68;;;6.22;;
46116;SDS011;32591;48.102;11.772;2023-08-24T11:38:21;7.18;;;6.13;;
46116;SDS011;32591;48.102;11.772;2023-08-24T11:40:49;10.30;;;5.88;;
46116;SDS011;32591;48.102;11.772;2023-08-24T11:43:20;6.53;;;5.80;;
46116;SDS011;32591;48.102;11.772;2023-08-24T11:45:52;9.25;;;5.18;;
46116;SDS011;32591;48.102;11.772;2023-08-24T11:48:23;6.65;;;5.80;;
46116;SDS011;32591;48.102;11.772;2023-08-24T11:50:54;7.57;;;5.55;;
46116;SDS011;32591;48.102;11.772;2023-08-24T11:53:21;7.78;;;5.68;;
46116;SDS011;32591;48.102;11.772;2023-08-24T11:55:52;7.38;;;5.88;;
46116;SDS011;32591;48.102;11.772;2023-08-24T11:58:20;9.00;;;5.57;;
46116;SDS011;32591;48.102;11.772;2023-08-24T12:00:47;5.68;;;4.80;;
46116;SDS011;32591;48.102;11.772;2023-08-24T12:03:16;9.98;;;6.63;;
46116;SDS011;32591;48.102;11.772;2023-08-24T12:05:44;6.97;;;4.95;;
46116;SDS011;32591;48.102;11.772;2023-08-24T12:08:11;10.75;;;5.57;;
46116;SDS011;32591;48.102;11.772;2023-08-24T12:10:41;6.45;;;5.50;;
46116;SDS011;32591;48.102;11.772;2023-08-24T12:13:08;7.47;;;5.68;;
46116;SDS011;32591;48.102;11.772;2023-08-24T12:15:35;7.15;;;5.28;;
46116;SDS011;32591;48.102;11.772;2023-08-24T12:18:06;6.75;;;5.10;;
46116;SDS011;32591;48.102;11.772;2023-08-24T12:20:36;10.35;;;5.40;;
46116;SDS011;32591;48.102;11.772;2023-08-24T12:23:03;9.10;;;6.05;;
46116;SDS011;32591;48.102;11.772;2023-08-24T12:25:35;7.78;;;5.25;;
46116;SDS011;32591;48.102;11.772;2023-08-24T12:28:08;6.10;;;5.20;;
46116;SDS011;32591;48.102;11.772;2023-08-24T12:30:43;9.85;;;5.30;;
46116;SDS011;32591;48.102;11.772;2023-08-24T12:33:21;8.77;;;5.60;;
46116;SDS011;32591;48.102;11.772;2023-08-24T12:35:51;7.75;;;5.25;;
46116;SDS011;32591;48.102;11.772;2023-08-24T12:38:19;7.25;;;5.70;;
46116;SDS011;32591;48.102;11.772;2023-08-24T12:40:54;6.40;;;4.55;;
46116;SDS011;32591;48.102;11.772;2023-08-24T12:43:21;6.40;;;5.32;;
46116;SDS011;32591;48.102;11.772;2023-08-24T12:45:47;8.20;;;4.85;;
46116;SDS011;32591;48.102;11.772;2023-08-24T12:48:15;6.03;;;4.75;;
46116;SDS011;32591;48.102;11.772;2023-08-24T12:50:42;6.82;;;4.70;;
46116;SDS011;32591;48.102;11.772;2023-08-24T12:53:10;6.25;;;5.25;;
46116;SDS011;32591;48.102;11.772;2023-08-24T12:55:38;7.90;;;5.15;;
46116;SDS011;32591;48.102;11.772;2023-08-24T12:58:06;8.63;;;4.80;;
46116;SDS011;32591;48.102;11.772;2023-08-24T13:00:33;8.57;;;5.72;;
46116;SDS011;32591;48.102;11.772;2023-08-24T13:03:00;7.40;;;4.60;;
46116;SDS011;32591;48.102;11.772;2023-08-24T13:05:26;12.18;;;4.82;;
46116;SDS011;32591;48.102;11.772;2023-08-24T13:07:53;11.40;;;5.05;;
46116;SDS011;32591;48.102;11.772;2023-08-24T13:10:22;7.80;;;5.25;;
46116;SDS011;32591;48.102;11.772;2023-08-24T13:12:50;8.57;;;4.78;;
46116;SDS011;32591;48.102;11.772;2023-08-24T13:15:17;11.13;;;5.50;;
46116;SDS011;32591;48.102;11.772;2023-08-24T13:17:45;7.82;;;5.35;;
46116;SDS011;32591;48.102;11.772;2023-08-24T13:20:13;9.52;;;4.95;;
46116;SDS011;32591;48.102;11.772;2023-08-24T13:22:40;7.65;;;5.05;;
46116;SDS011;32591;48.102;11.772;2023-08-24T13:25:07;5.53;;;4.28;;
46116;SDS011;32591;48.102;11.772;2023-08-24T13:27:37;5.95;;;5.13;;
46116;SDS011;32591;48.102;11.772;2023-08-24T13:30:04;8.88;;;4.82;;
46116;SDS011;32591;48.102;11.772;2023-08-24T13:32:33;6.47;;;5.03;;
46116;SDS011;32591;48.102;11.772;2023-08-24T13:35:00;6.97;;;5.18;;
46116;SDS011;32591;48.102;11.772;2023-08-24T13:37:27;9.40;;;4.93;;
46116;SDS011;32591;48.102;11.772;2023-08-24T13:39:54;7.55;;;5.15;;
46116;SDS011;32591;48.102;11.772;2023-08-24T13:42:21;6.75;;;4.90;;
46116;SDS011;32591;48.102;11.772;2023-08-24T13:44:50;7.20;;;5.47;;
46116;SDS011;32591;48.102;11.772;2023-08-24T13:47:17;7.45;;;4.85;;
46116;SDS011;32591;48.102;11.772;2023-08-24T13:49:46;9.07;;;5.93;;
46116;SDS011;32591;48.102;11.772;2023-08-24T13:52:14;8.10;;;4.95;;
46116;SDS011;32591;48.102;11.772;2023-08-24T13:54:44;9.15;;;5.45;;
46116;SDS011;32591;48.102;11.772;2023-08-24T13:57:11;6.85;;;5.43;;
46116;SDS011;32591;48.102;11.772;2023-08-24T13:59:38;9.02;;;5.28;;
46116;SDS011;32591;48.102;11.772;2023-08-24T14:02:06;9.13;;;5.50;;
46116;SDS011;32591;48.102;11.772;2023-08-24T14:04:33;12.80;;;6.15;;
46116;SDS011;32591;48.102;11.772;2023-08-24T14:07:00;7.47;;;5.10;;
46116;SDS011;32591;48.102;11.772;2023-08-24T14:09:27;9.43;;;5.03;;
46116;SDS011;32591;48.102;11.772;2023-08-24T14:11:54;7.47;;;6.15;;
46116;SDS011;32591;48.102;11.772;2023-08-24T14:14:21;11.02;;;5.43;;
46116;SDS011;32591;48.102;11.772;2023-08-24T14:16:48;12.93;;;5.75;;
46116;SDS011;32591;48.102;11.772;2023-08-24T14:19:22;10.02;;;6.03;;
46116;SDS011;32591;48.102;11.772;2023-08-24T14:21:49;11.18;;;5.32;;
46116;SDS011;32591;48.102;11.772;2023-08-24T14:24:16;8.02;;;5.68;;
46116;SDS011;32591;48.102;11.772;2023-08-24T14:26:43;10.25;;;6.05;;
46116;SDS011;32591;48.102;11.772;2023-08-24T14:29:11;15.32;;;5.80;;
46116;SDS011;32591;48.102;11.772;2023-08-24T14:31:39;9.45;;;5.57;;
46116;SDS011;32591;48.102;11.772;2023-08-24T14:34:06;8.10;;;5.13;;
46116;SDS011;32591;48.102;11.772;2023-08-24T14:36:35;9.60;;;5.68;;
46116;SDS011;32591;48.102;11.772;2023-08-24T14:39:02;6.93;;;6.22;;
46116;SDS011;32591;48.102;11.772;2023-08-24T14:41:29;12.98;;;5.85;;
46116;SDS011;32591;48.102;11.772;2023-08-24T14:43:56;8.20;;;5.07;;
46116;SDS011;32591;48.102;11.772;2023-08-24T14:46:23;8.95;;;4.75;;